sensor_id;sensor_type;location;lat;lon;timestamp;pressure;altitude;pressure_sealevel;temperature;humidity
71344;BME280;59146;43.850;25.948;2024-01-11T00:00:35;102536.19;;;-4.61;81.21
71344;BME280;59146;43.850;25.948;2024-01-11T00:03:01;102532.19;;;-4.53;80.78
71344;BME280;59146;43.850;25.948;2024-01-11T00:05:26;102483.22;;;-4.70;80.96
71344;BME280;59146;43.850;25.948;2024-01-11T00:07:52;102478.06;;;-4.71;81.02
71344;BME280;59146;43.850;25.948;2024-01-11T00:10:18;102492.69;;;-4.66;80.83
71344;BME280;59146;43.850;25.948;2024-01-11T00:12:44;102503.09;;;-4.60;80.90
71344;BME280;59146;43.850;25.948;2024-01-11T00:15:09;102480.72;;;-4.67;81.56
71344;BME280;59146;43.850;25.948;2024-01-11T00:17:35;102531.03;;;-4.38;81.66
71344;BME280;59146;43.850;25.948;2024-01-11T00:20:01;102491.25;;;-4.58;81.53
71344;BME280;59146;43.850;25.948;2024-01-11T00:22:26;102507.00;;;-4.44;81.16
71344;BME280;59146;43.850;25.948;2024-01-11T00:24:52;102534.56;;;-4.33;82.61
71344;BME280;59146;43.850;25.948;2024-01-11T00:27:18;102442.09;;;-4.79;83.49
71344;BME280;59146;43.850;25.948;2024-01-11T00:29:43;102459.56;;;-4.64;83.35
71344;BME280;59146;43.850;25.948;2024-01-11T00:32:09;102408.47;;;-4.94;84.39
71344;BME280;59146;43.850;25.948;2024-01-11T00:34:35;102473.72;;;-4.74;85.27
71344;BME280;59146;43.850;25.948;2024-01-11T00:37:01;102512.22;;;-4.40;86.41
71344;BME280;59146;43.850;25.948;2024-01-11T00:39:26;102450.75;;;-4.75;85.38
71344;BME280;59146;43.850;25.948;2024-01-11T00:41:52;102513.03;;;-4.42;84.62
71344;BME280;59146;43.850;25.948;2024-01-11T00:44:17;102472.84;;;-4.74;85.25
71344;BME280;59146;43.850;25.948;2024-01-11T00:46:43;102436.31;;;-5.00;85.89
71344;BME280;59146;43.850;25.948;2024-01-11T00:49:08;102454.47;;;-4.91;85.92
71344;BME280;59146;43.850;25.948;2024-01-11T00:51:34;102504.53;;;-4.68;86.53
71344;BME280;59146;43.850;25.948;2024-01-11T00:53:59;102386.41;;;-5.44;87.22
71344;BME280;59146;43.850;25.948;2024-01-11T00:56:24;102430.78;;;-5.14;87.55
71344;BME280;59146;43.850;25.948;2024-01-11T00:58:50;102503.97;;;-4.85;87.24
71344;BME280;59146;43.850;25.948;2024-01-11T01:01:15;102455.22;;;-5.19;88.66
71344;BME280;59146;43.850;25.948;2024-01-11T01:03:41;102475.97;;;-5.08;88.60
71344;BME280;59146;43.850;25.948;2024-01-11T01:06:06;102453.41;;;-5.21;89.05
71344;BME280;59146;43.850;25.948;2024-01-11T01:08:32;102491.78;;;-4.93;89.49
71344;BME280;59146;43.850;25.948;2024-01-11T01:10:57;102459.56;;;-4.91;88.41
71344;BME280;59146;43.850;25.948;2024-01-11T01:13:23;102496.63;;;-4.75;88.60
71344;BME280;59146;43.850;25.948;2024-01-11T01:15:48;102409.75;;;-5.32;89.60
71344;BME280;59146;43.850;25.948;2024-01-11T01:18:14;102445.69;;;-4.99;89.30
71344;BME280;59146;43.850;25.948;2024-01-11T01:20:39;102471.38;;;-4.68;89.77
71344;BME280;59146;43.850;25.948;2024-01-11T01:23:05;102450.28;;;-4.89;89.00
71344;BME280;59146;43.850;25.948;2024-01-11T01:25:31;102411.66;;;-5.01;88.75
71344;BME280;59146;43.850;25.948;2024-01-11T01:27:57;102403.53;;;-5.15;88.76
71344;BME280;59146;43.850;25.948;2024-01-11T01:30:24;102454.09;;;-4.76;89.40
71344;BME280;59146;43.850;25.948;2024-01-11T01:32:49;102438.75;;;-4.78;89.49
71344;BME280;59146;43.850;25.948;2024-01-11T01:35:15;102443.84;;;-4.78;89.71
71344;BME280;59146;43.850;25.948;2024-01-11T01:37:41;102413.09;;;-5.09;89.76
71344;BME280;59146;43.850;25.948;2024-01-11T01:40:07;102433.66;;;-5.03;89.93
71344;BME280;59146;43.850;25.948;2024-01-11T01:42:33;102455.59;;;-4.82;89.71
71344;BME280;59146;43.850;25.948;2024-01-11T01:44:59;102413.09;;;-5.09;90.14
71344;BME280;59146;43.850;25.948;2024-01-11T01:47:26;102388.16;;;-5.18;89.54
71344;BME280;59146;43.850;25.948;2024-01-11T01:49:52;102372.41;;;-5.31;89.99
71344;BME280;59146;43.850;25.948;2024-01-11T01:52:18;102430.75;;;-4.89;91.55
71344;BME280;59146;43.850;25.948;2024-01-11T01:54:44;102450.94;;;-4.95;90.65
71344;BME280;59146;43.850;25.948;2024-01-11T01:57:10;102426.03;;;-5.03;89.89
71344;BME280;59146;43.850;25.948;2024-01-11T01:59:37;102408.47;;;-5.19;90.44
71344;BME280;59146;43.850;25.948;2024-01-11T02:02:04;102364.78;;;-5.31;90.47
71344;BME280;59146;43.850;25.948;2024-01-11T02:04:31;102358.53;;;-5.41;89.88
71344;BME280;59146;43.850;25.948;2024-01-11T02:06:57;102418.44;;;-5.02;89.91
71344;BME280;59146;43.850;25.948;2024-01-11T02:09:24;102422.34;;;-4.86;88.89
71344;BME280;59146;43.850;25.948;2024-01-11T02:11:51;102402.38;;;-4.99;88.36
71344;BME280;59146;43.850;25.948;2024-01-11T02:14:18;102414.81;;;-4.82;88.43
71344;BME280;59146;43.850;25.948;2024-01-11T02:16:44;102344.69;;;-5.22;87.91
71344;BME280;59146;43.850;25.948;2024-01-11T02:19:13;102358.03;;;-5.04;87.77
71344;BME280;59146;43.850;25.948;2024-01-11T02:21:41;102341.75;;;-5.09;86.91
71344;BME280;59146;43.850;25.948;2024-01-11T02:24:07;102410.13;;;-4.69;87.43
71344;BME280;59146;43.850;25.948;2024-01-11T02:26:33;102397.13;;;-4.77;87.22
71344;BME280;59146;43.850;25.948;2024-01-11T02:28:59;102321.25;;;-5.12;87.69
71344;BME280;59146;43.850;25.948;2024-01-11T02:31:25;102399.44;;;-4.85;88.27
71344;BME280;59146;43.850;25.948;2024-01-11T02:33:52;102407.59;;;-4.69;88.95
71344;BME280;59146;43.850;25.948;2024-01-11T02:36:18;102357.41;;;-4.97;89.17
71344;BME280;59146;43.850;25.948;2024-01-11T02:38:44;102319.53;;;-5.13;88.85
71344;BME280;59146;43.850;25.948;2024-01-11T02:41:11;102375.94;;;-4.76;88.87
71344;BME280;59146;43.850;25.948;2024-01-11T02:43:37;102350.06;;;-4.88;88.20
71344;BME280;59146;43.850;25.948;2024-01-11T02:46:03;102374.19;;;-4.77;88.38
71344;BME280;59146;43.850;25.948;2024-01-11T02:48:31;102332.47;;;-5.07;87.81
71344;BME280;59146;43.850;25.948;2024-01-11T02:50:57;102304.09;;;-5.18;87.05
71344;BME280;59146;43.850;25.948;2024-01-11T02:53:23;102301.44;;;-5.21;87.14
71344;BME280;59146;43.850;25.948;2024-01-11T02:55:49;102347.28;;;-4.94;87.07
71344;BME280;59146;43.850;25.948;2024-01-11T02:58:15;102295.56;;;-5.18;86.47
71344;BME280;59146;43.850;25.948;2024-01-11T03:00:40;102360.34;;;-4.85;87.08
71344;BME280;59146;43.850;25.948;2024-01-11T03:03:06;102328.47;;;-4.99;87.21
71344;BME280;59146;43.850;25.948;2024-01-11T03:05:31;102361.53;;;-4.74;86.11
71344;BME280;59146;43.850;25.948;2024-01-11T03:07:57;102293.97;;;-5.15;85.59
71344;BME280;59146;43.850;25.948;2024-01-11T03:10:22;102370.91;;;-4.73;86.54
71344;BME280;59146;43.850;25.948;2024-01-11T03:12:48;102274.13;;;-5.25;86.91
71344;BME280;59146;43.850;25.948;2024-01-11T03:15:15;102348.59;;;-4.80;86.82
71344;BME280;59146;43.850;25.948;2024-01-11T03:17:40;102309.59;;;-5.04;86.11
71344;BME280;59146;43.850;25.948;2024-01-11T03:20:06;102228.94;;;-5.57;86.33
71344;BME280;59146;43.850;25.948;2024-01-11T03:22:32;102345.78;;;-4.89;87.24
71344;BME280;59146;43.850;25.948;2024-01-11T03:24:58;102335.06;;;-5.06;87.76
71344;BME280;59146;43.850;25.948;2024-01-11T03:27:23;102349.13;;;-4.90;88.03
71344;BME280;59146;43.850;25.948;2024-01-11T03:29:49;102258.22;;;-5.44;87.29
71344;BME280;59146;43.850;25.948;2024-01-11T03:32:15;102348.31;;;-4.89;87.51
71344;BME280;59146;43.850;25.948;2024-01-11T03:34:41;102351.38;;;-5.01;88.29
71344;BME280;59146;43.850;25.948;2024-01-11T03:37:06;102273.00;;;-5.34;90.08
71344;BME280;59146;43.850;25.948;2024-01-11T03:39:33;102318.16;;;-5.02;91.71
71344;BME280;59146;43.850;25.948;2024-01-11T03:41:59;102342.31;;;-4.91;92.57
71344;BME280;59146;43.850;25.948;2024-01-11T03:44:24;102188.09;;;-5.61;92.22
71344;BME280;59146;43.850;25.948;2024-01-11T03:46:49;102331.69;;;-4.78;91.50
71344;BME280;59146;43.850;25.948;2024-01-11T03:49:15;102242.53;;;-5.30;92.77
71344;BME280;59146;43.850;25.948;2024-01-11T03:51:40;102304.47;;;-5.06;93.07
71344;BME280;59146;43.850;25.948;2024-01-11T03:54:05;102264.09;;;-5.20;93.51
71344;BME280;59146;43.850;25.948;2024-01-11T03:56:31;102261.63;;;-5.17;93.78
71344;BME280;59146;43.850;25.948;2024-01-11T03:58:56;102229.69;;;-5.34;93.73
71344;BME280;59146;43.850;25.948;2024-01-11T04:01:22;102232.28;;;-5.33;93.06
71344;BME280;59146;43.850;25.948;2024-01-11T04:03:47;102298.69;;;-5.00;93.13
71344;BME280;59146;43.850;25.948;2024-01-11T04:06:22;102237.41;;;-5.31;92.97
71344;BME280;59146;43.850;25.948;2024-01-11T04:08:49;102298.13;;;-4.90;93.38
71344;BME280;59146;43.850;25.948;2024-01-11T04:11:15;102264.09;;;-5.20;92.86
71344;BME280;59146;43.850;25.948;2024-01-11T04:13:40;102216.66;;;-5.43;93.49
71344;BME280;59146;43.850;25.948;2024-01-11T04:16:06;102202.84;;;-5.51;93.85
71344;BME280;59146;43.850;25.948;2024-01-11T04:18:32;102207.28;;;-5.44;93.13
71344;BME280;59146;43.850;25.948;2024-01-11T04:20:57;102240.22;;;-5.24;92.42
71344;BME280;59146;43.850;25.948;2024-01-11T04:23:23;102272.75;;;-5.15;92.38
71344;BME280;59146;43.850;25.948;2024-01-11T04:25:48;102145.63;;;-5.91;91.85
71344;BME280;59146;43.850;25.948;2024-01-11T04:28:15;102179.53;;;-5.63;92.47
71344;BME280;59146;43.850;25.948;2024-01-11T04:30:41;102202.78;;;-5.53;93.22
71344;BME280;59146;43.850;25.948;2024-01-11T04:33:06;102254.38;;;-5.05;94.20
71344;BME280;59146;43.850;25.948;2024-01-11T04:35:32;102267.38;;;-4.96;94.62
71344;BME280;59146;43.850;25.948;2024-01-11T04:37:57;102276.97;;;-4.88;94.49
71344;BME280;59146;43.850;25.948;2024-01-11T04:40:23;102264.19;;;-4.89;93.48
71344;BME280;59146;43.850;25.948;2024-01-11T04:42:48;102282.22;;;-4.83;92.41
71344;BME280;59146;43.850;25.948;2024-01-11T04:45:14;102162.53;;;-5.65;89.57
71344;BME280;59146;43.850;25.948;2024-01-11T04:47:39;102212.47;;;-5.41;87.99
71344;BME280;59146;43.850;25.948;2024-01-11T04:50:06;102264.38;;;-5.11;87.83
71344;BME280;59146;43.850;25.948;2024-01-11T04:52:32;102204.63;;;-5.49;89.18
71344;BME280;59146;43.850;25.948;2024-01-11T04:54:57;102261.72;;;-5.14;91.08
71344;BME280;59146;43.850;25.948;2024-01-11T04:57:23;102241.88;;;-5.24;92.26
71344;BME280;59146;43.850;25.948;2024-01-11T04:59:48;102182.16;;;-5.60;92.48
71344;BME280;59146;43.850;25.948;2024-01-11T05:02:13;102270.22;;;-5.15;93.49
71344;BME280;59146;43.850;25.948;2024-01-11T05:04:39;102214.59;;;-5.55;93.67
71344;BME280;59146;43.850;25.948;2024-01-11T05:07:04;102251.22;;;-5.51;93.92
71344;BME280;59146;43.850;25.948;2024-01-11T05:09:30;102261.16;;;-5.32;94.10
71344;BME280;59146;43.850;25.948;2024-01-11T05:11:55;102206.72;;;-5.63;94.11
71344;BME280;59146;43.850;25.948;2024-01-11T05:14:20;102235.63;;;-5.60;94.35
71344;BME280;59146;43.850;25.948;2024-01-11T05:16:46;102274.81;;;-5.30;93.69
71344;BME280;59146;43.850;25.948;2024-01-11T05:19:11;102145.16;;;-6.04;93.64
71344;BME280;59146;43.850;25.948;2024-01-11T05:21:37;102243.38;;;-5.57;94.24
71344;BME280;59146;43.850;25.948;2024-01-11T05:24:02;102243.72;;;-5.47;94.43
71344;BME280;59146;43.850;25.948;2024-01-11T05:26:28;102282.53;;;-5.27;94.65
71344;BME280;59146;43.850;25.948;2024-01-11T05:28:53;102246.84;;;-5.55;94.47
71344;BME280;59146;43.850;25.948;2024-01-11T05:31:19;102258.56;;;-5.34;94.70
71344;BME280;59146;43.850;25.948;2024-01-11T05:33:45;102136.78;;;-6.02;94.94
71344;BME280;59146;43.850;25.948;2024-01-11T05:36:11;102248.28;;;-5.37;95.85
71344;BME280;59146;43.850;25.948;2024-01-11T05:38:38;102268.09;;;-5.28;96.43
71344;BME280;59146;43.850;25.948;2024-01-11T05:41:04;102217.72;;;-5.37;96.51
71344;BME280;59146;43.850;25.948;2024-01-11T05:43:29;102234.09;;;-5.29;96.67
71344;BME280;59146;43.850;25.948;2024-01-11T05:45:56;102154.59;;;-5.74;95.61
71344;BME280;59146;43.850;25.948;2024-01-11T05:48:21;102263.47;;;-5.13;94.59
71344;BME280;59146;43.850;25.948;2024-01-11T05:50:47;102251.91;;;-5.30;94.42
71344;BME280;59146;43.850;25.948;2024-01-11T05:53:13;102235.78;;;-5.29;94.71
71344;BME280;59146;43.850;25.948;2024-01-11T05:55:39;102190.81;;;-5.55;95.18
71344;BME280;59146;43.850;25.948;2024-01-11T05:58:05;102156.53;;;-5.67;95.05
71344;BME280;59146;43.850;25.948;2024-01-11T06:00:30;102256.22;;;-5.28;95.37
71344;BME280;59146;43.850;25.948;2024-01-11T06:02:56;102177.13;;;-5.59;95.53
71344;BME280;59146;43.850;25.948;2024-01-11T06:05:21;102202.63;;;-5.31;94.82
71344;BME280;59146;43.850;25.948;2024-01-11T06:07:47;102080.31;;;-6.17;94.67
71344;BME280;59146;43.850;25.948;2024-01-11T06:10:14;102232.34;;;-5.30;95.43
71344;BME280;59146;43.850;25.948;2024-01-11T06:12:40;102205.53;;;-5.47;95.48
71344;BME280;59146;43.850;25.948;2024-01-11T06:15:07;102244.72;;;-5.15;95.83
71344;BME280;59146;43.850;25.948;2024-01-11T06:17:32;102213.88;;;-5.24;94.91
71344;BME280;59146;43.850;25.948;2024-01-11T06:19:58;102206.19;;;-5.26;93.61
71344;BME280;59146;43.850;25.948;2024-01-11T06:22:23;102118.03;;;-5.76;93.37
71344;BME280;59146;43.850;25.948;2024-01-11T06:24:48;102253.66;;;-5.01;93.07
71344;BME280;59146;43.850;25.948;2024-01-11T06:27:14;102161.00;;;-5.59;91.52
71344;BME280;59146;43.850;25.948;2024-01-11T06:29:39;102211.94;;;-5.31;91.13
71344;BME280;59146;43.850;25.948;2024-01-11T06:32:05;102259.16;;;-5.16;91.34
71344;BME280;59146;43.850;25.948;2024-01-11T06:34:31;102160.59;;;-5.72;91.79
71344;BME280;59146;43.850;25.948;2024-01-11T06:36:56;102177.06;;;-5.60;90.68
71344;BME280;59146;43.850;25.948;2024-01-11T06:39:22;102244.25;;;-5.30;89.85
71344;BME280;59146;43.850;25.948;2024-01-11T06:41:47;102219.91;;;-5.49;90.06
71344;BME280;59146;43.850;25.948;2024-01-11T06:44:13;102184.75;;;-5.59;90.64
71344;BME280;59146;43.850;25.948;2024-01-11T06:46:38;102156.00;;;-5.83;91.13
71344;BME280;59146;43.850;25.948;2024-01-11T06:49:09;102071.38;;;-6.31;90.86
71344;BME280;59146;43.850;25.948;2024-01-11T06:51:35;102140.31;;;-5.97;90.85
71344;BME280;59146;43.850;25.948;2024-01-11T06:54:00;102196.50;;;-5.64;91.16
71344;BME280;59146;43.850;25.948;2024-01-11T06:56:26;102103.91;;;-6.21;90.87
71344;BME280;59146;43.850;25.948;2024-01-11T06:58:52;102181.78;;;-5.73;91.08
71344;BME280;59146;43.850;25.948;2024-01-11T07:01:17;102213.63;;;-5.58;90.31
71344;BME280;59146;43.850;25.948;2024-01-11T07:03:43;102190.19;;;-5.75;90.48
71344;BME280;59146;43.850;25.948;2024-01-11T07:06:08;102214.34;;;-5.63;91.21
71344;BME280;59146;43.850;25.948;2024-01-11T07:08:34;102169.69;;;-5.80;91.34
71344;BME280;59146;43.850;25.948;2024-01-11T07:11:00;102192.50;;;-5.56;90.94
71344;BME280;59146;43.850;25.948;2024-01-11T07:13:28;102166.16;;;-5.85;91.50
71344;BME280;59146;43.850;25.948;2024-01-11T07:15:53;102156.00;;;-5.85;92.02
71344;BME280;59146;43.850;25.948;2024-01-11T07:18:21;102223.19;;;-5.51;91.81
71344;BME280;59146;43.850;25.948;2024-01-11T07:20:46;102140.53;;;-5.91;91.92
71344;BME280;59146;43.850;25.948;2024-01-11T07:23:13;102208.69;;;-5.54;91.96
71344;BME280;59146;43.850;25.948;2024-01-11T07:25:39;102200.13;;;-5.56;92.24
71344;BME280;59146;43.850;25.948;2024-01-11T07:28:05;102197.75;;;-5.51;92.41
71344;BME280;59146;43.850;25.948;2024-01-11T07:30:30;102207.28;;;-5.44;92.33
71344;BME280;59146;43.850;25.948;2024-01-11T07:32:56;102188.34;;;-5.52;92.34
71344;BME280;59146;43.850;25.948;2024-01-11T07:35:21;102197.31;;;-5.38;91.86
71344;BME280;59146;43.850;25.948;2024-01-11T07:37:47;102149.78;;;-5.65;91.80
71344;BME280;59146;43.850;25.948;2024-01-11T07:40:12;102211.88;;;-5.34;91.29
71344;BME280;59146;43.850;25.948;2024-01-11T07:42:39;102245.16;;;-5.00;91.54
71344;BME280;59146;43.850;25.948;2024-01-11T07:45:06;102220.56;;;-5.00;91.61
71344;BME280;59146;43.850;25.948;2024-01-11T07:47:32;102207.19;;;-5.21;92.12
71344;BME280;59146;43.850;25.948;2024-01-11T07:49:57;102196.53;;;-5.08;91.83
71344;BME280;59146;43.850;25.948;2024-01-11T07:52:23;102167.25;;;-5.22;91.49
71344;BME280;59146;43.850;25.948;2024-01-11T07:54:49;102201.53;;;-4.82;91.59
71344;BME280;59146;43.850;25.948;2024-01-11T07:57:14;102111.41;;;-5.14;91.26
71344;BME280;59146;43.850;25.948;2024-01-11T07:59:40;102155.84;;;-4.75;90.49
71344;BME280;59146;43.850;25.948;2024-01-11T08:02:06;102113.47;;;-4.71;89.59
71344;BME280;59146;43.850;25.948;2024-01-11T08:04:31;102167.84;;;-4.40;89.81
71344;BME280;59146;43.850;25.948;2024-01-11T08:06:57;102204.53;;;-4.04;89.06
71344;BME280;59146;43.850;25.948;2024-01-11T08:09:25;102128.53;;;-4.48;87.11
71344;BME280;59146;43.850;25.948;2024-01-11T08:11:51;102183.22;;;-4.04;87.00
71344;BME280;59146;43.850;25.948;2024-01-11T08:14:22;102149.59;;;-4.22;86.95
71344;BME280;59146;43.850;25.948;2024-01-11T08:16:47;102173.56;;;-3.83;86.98
71344;BME280;59146;43.850;25.948;2024-01-11T08:19:12;102109.63;;;-4.23;87.58
71344;BME280;59146;43.850;25.948;2024-01-11T08:21:40;102140.06;;;-3.96;88.44
71344;BME280;59146;43.850;25.948;2024-01-11T08:24:07;102125.50;;;-4.00;87.42
71344;BME280;59146;43.850;25.948;2024-01-11T08:26:32;102158.44;;;-3.75;86.38
71344;BME280;59146;43.850;25.948;2024-01-11T08:28:58;102079.47;;;-4.02;86.61
71344;BME280;59146;43.850;25.948;2024-01-11T08:31:24;102136.50;;;-3.67;85.58
71344;BME280;59146;43.850;25.948;2024-01-11T08:33:49;102178.25;;;-3.28;83.76
71344;BME280;59146;43.850;25.948;2024-01-11T08:36:15;102106.66;;;-3.68;83.62
71344;BME280;59146;43.850;25.948;2024-01-11T08:38:41;102146.47;;;-3.39;83.97
71344;BME280;59146;43.850;25.948;2024-01-11T08:41:06;102092.03;;;-3.75;85.43
71344;BME280;59146;43.850;25.948;2024-01-11T08:43:32;102068.84;;;-3.84;84.71
71344;BME280;59146;43.850;25.948;2024-01-11T08:45:58;102122.03;;;-3.28;84.29
71344;BME280;59146;43.850;25.948;2024-01-11T08:48:24;102128.13;;;-3.23;82.88
71344;BME280;59146;43.850;25.948;2024-01-11T08:50:49;102155.13;;;-2.94;82.94
71344;BME280;59146;43.850;25.948;2024-01-11T08:53:15;102098.69;;;-3.43;83.37
71344;BME280;59146;43.850;25.948;2024-01-11T08:55:43;102109.91;;;-3.38;84.48
71344;BME280;59146;43.850;25.948;2024-01-11T08:58:09;102109.28;;;-3.27;85.24
71344;BME280;59146;43.850;25.948;2024-01-11T09:00:36;102079.16;;;-3.41;85.40
71344;BME280;59146;43.850;25.948;2024-01-11T09:03:03;102154.34;;;-2.91;85.51
71344;BME280;59146;43.850;25.948;2024-01-11T09:05:28;102116.91;;;-2.86;85.32
71344;BME280;59146;43.850;25.948;2024-01-11T09:07:54;102111.03;;;-2.82;84.26
71344;BME280;59146;43.850;25.948;2024-01-11T09:10:19;102099.81;;;-2.90;83.90
71344;BME280;59146;43.850;25.948;2024-01-11T09:12:45;102116.56;;;-2.60;83.92
71344;BME280;59146;43.850;25.948;2024-01-11T09:15:11;102025.22;;;-3.13;83.13
71344;BME280;59146;43.850;25.948;2024-01-11T09:17:37;102103.56;;;-2.72;84.36
71344;BME280;59146;43.850;25.948;2024-01-11T09:20:04;102078.75;;;-2.76;84.56
71344;BME280;59146;43.850;25.948;2024-01-11T09:22:30;102107.50;;;-2.43;83.58
71344;BME280;59146;43.850;25.948;2024-01-11T09:24:55;102071.75;;;-2.39;83.33
71344;BME280;59146;43.850;25.948;2024-01-11T09:27:20;101993.31;;;-2.87;83.52
71344;BME280;59146;43.850;25.948;2024-01-11T09:29:46;102004.56;;;-2.77;83.71
71344;BME280;59146;43.850;25.948;2024-01-11T09:32:12;101977.84;;;-2.94;83.27
71344;BME280;59146;43.850;25.948;2024-01-11T09:34:37;102074.66;;;-2.18;83.72
71344;BME280;59146;43.850;25.948;2024-01-11T09:37:03;102027.34;;;-2.43;83.79
71344;BME280;59146;43.850;25.948;2024-01-11T09:39:29;102013.13;;;-2.24;83.76
71344;BME280;59146;43.850;25.948;2024-01-11T09:42:08;102035.69;;;-1.99;83.15
71344;BME280;59146;43.850;25.948;2024-01-11T09:44:37;101984.25;;;-2.14;82.24
71344;BME280;59146;43.850;25.948;2024-01-11T09:47:10;101961.09;;;-2.22;81.42
71344;BME280;59146;43.850;25.948;2024-01-11T09:49:37;102032.50;;;-1.83;82.50
71344;BME280;59146;43.850;25.948;2024-01-11T09:52:05;101919.88;;;-2.42;80.24
71344;BME280;59146;43.850;25.948;2024-01-11T09:54:30;102019.88;;;-1.71;80.41
71344;BME280;59146;43.850;25.948;2024-01-11T09:56:58;102002.72;;;-1.75;79.97
71344;BME280;59146;43.850;25.948;2024-01-11T09:59:25;102031.28;;;-1.48;80.23
71344;BME280;59146;43.850;25.948;2024-01-11T10:01:51;101871.03;;;-2.57;80.37
71344;BME280;59146;43.850;25.948;2024-01-11T10:04:17;101958.16;;;-1.88;80.08
71344;BME280;59146;43.850;25.948;2024-01-11T10:06:43;101942.75;;;-1.92;80.05
71344;BME280;59146;43.850;25.948;2024-01-11T10:09:09;101944.47;;;-1.90;79.30
71344;BME280;59146;43.850;25.948;2024-01-11T10:11:35;102003.19;;;-1.40;79.65
71344;BME280;59146;43.850;25.948;2024-01-11T10:14:01;101800.16;;;-2.64;78.44
71344;BME280;59146;43.850;25.948;2024-01-11T10:16:28;101903.56;;;-1.84;78.76
71344;BME280;59146;43.850;25.948;2024-01-11T10:18:56;101889.03;;;-1.86;79.11
71344;BME280;59146;43.850;25.948;2024-01-11T10:21:23;101980.25;;;-1.27;79.34
71344;BME280;59146;43.850;25.948;2024-01-11T10:23:49;101925.31;;;-1.51;79.03
71344;BME280;59146;43.850;25.948;2024-01-11T10:26:16;101987.38;;;-1.02;78.58
71344;BME280;59146;43.850;25.948;2024-01-11T10:28:45;101978.19;;;-0.80;78.12
71344;BME280;59146;43.850;25.948;2024-01-11T10:31:11;101904.31;;;-1.16;77.58
71344;BME280;59146;43.850;25.948;2024-01-11T10:33:37;101920.88;;;-0.79;77.51
71344;BME280;59146;43.850;25.948;2024-01-11T10:36:03;101835.88;;;-1.24;75.18
71344;BME280;59146;43.850;25.948;2024-01-11T10:38:30;101944.13;;;-0.61;75.58
71344;BME280;59146;43.850;25.948;2024-01-11T10:40:59;101868.47;;;-1.10;73.77
71344;BME280;59146;43.850;25.948;2024-01-11T10:43:26;101901.22;;;-0.80;73.69
71344;BME280;59146;43.850;25.948;2024-01-11T10:45:55;101890.09;;;-0.79;74.02
71344;BME280;59146;43.850;25.948;2024-01-11T10:48:24;101927.03;;;-0.57;73.56
71344;BME280;59146;43.850;25.948;2024-01-11T10:50:54;101853.00;;;-1.17;73.70
71344;BME280;59146;43.850;25.948;2024-01-11T10:56:01;101890.16;;;-0.67;73.10
71344;BME280;59146;43.850;25.948;2024-01-11T10:58:26;101830.25;;;-0.76;71.24
71344;BME280;59146;43.850;25.948;2024-01-11T11:00:53;101866.34;;;-0.49;71.08
71344;BME280;59146;43.850;25.948;2024-01-11T11:03:23;101799.34;;;-0.93;71.48
71344;BME280;59146;43.850;25.948;2024-01-11T11:05:53;101883.47;;;-0.48;71.16
71344;BME280;59146;43.850;25.948;2024-01-11T11:08:19;101861.19;;;-0.57;71.44
71344;BME280;59146;43.850;25.948;2024-01-11T11:10:46;101840.72;;;-0.46;70.79
71344;BME280;59146;43.850;25.948;2024-01-11T11:13:14;101772.94;;;-0.80;71.41
71344;BME280;59146;43.850;25.948;2024-01-11T11:15:42;101835.56;;;-0.46;71.57
71344;BME280;59146;43.850;25.948;2024-01-11T11:18:12;101857.09;;;-0.14;71.02
71344;BME280;59146;43.850;25.948;2024-01-11T11:20:39;101804.78;;;-0.37;70.35
71344;BME280;59146;43.850;25.948;2024-01-11T11:23:11;101796.28;;;-0.30;70.81
71344;BME280;59146;43.850;25.948;2024-01-11T11:25:39;101854.59;;;-0.02;72.56
71344;BME280;59146;43.850;25.948;2024-01-11T11:28:05;101851.25;;;0.23;72.52
71344;BME280;59146;43.850;25.948;2024-01-11T11:30:38;101822.09;;;0.15;69.81
71344;BME280;59146;43.850;25.948;2024-01-11T11:33:11;101817.84;;;0.20;69.86
71344;BME280;59146;43.850;25.948;2024-01-11T11:35:40;101837.56;;;0.30;70.21
71344;BME280;59146;43.850;25.948;2024-01-11T11:38:06;101794.63;;;-0.10;70.55
71344;BME280;59146;43.850;25.948;2024-01-11T11:40:33;101829.81;;;0.06;70.10
71344;BME280;59146;43.850;25.948;2024-01-11T11:43:02;101666.03;;;-0.76;70.28
71344;BME280;59146;43.850;25.948;2024-01-11T11:45:30;101763.81;;;-0.10;69.62
71344;BME280;59146;43.850;25.948;2024-01-11T11:47:57;101810.16;;;0.32;69.07
71344;BME280;59146;43.850;25.948;2024-01-11T11:50:22;101750.13;;;-0.09;68.50
71344;BME280;59146;43.850;25.948;2024-01-11T11:52:54;101807.63;;;0.58;68.58
71344;BME280;59146;43.850;25.948;2024-01-11T11:55:22;101754.41;;;0.03;68.15
71344;BME280;59146;43.850;25.948;2024-01-11T11:57:48;101703.00;;;-0.20;68.50
71344;BME280;59146;43.850;25.948;2024-01-11T12:00:15;101722.72;;;-0.07;67.48
71344;BME280;59146;43.850;25.948;2024-01-11T12:02:41;101730.44;;;-0.04;68.17
71344;BME280;59146;43.850;25.948;2024-01-11T12:05:07;101736.44;;;-0.01;67.27
71344;BME280;59146;43.850;25.948;2024-01-11T12:07:32;101703.03;;;-0.13;68.51
71344;BME280;59146;43.850;25.948;2024-01-11T12:09:58;101694.47;;;0.13;67.47
71344;BME280;59146;43.850;25.948;2024-01-11T12:12:23;101729.63;;;0.36;69.11
71344;BME280;59146;43.850;25.948;2024-01-11T12:14:49;101695.38;;;0.16;68.15
71344;BME280;59146;43.850;25.948;2024-01-11T12:17:16;101736.50;;;0.58;65.94
71344;BME280;59146;43.850;25.948;2024-01-11T12:19:41;101745.94;;;0.67;66.36
71344;BME280;59146;43.850;25.948;2024-01-11T12:22:07;101751.03;;;0.55;66.02
71344;BME280;59146;43.850;25.948;2024-01-11T12:24:33;101690.22;;;0.16;67.05
71344;BME280;59146;43.850;25.948;2024-01-11T12:27:01;101677.38;;;0.04;68.15
71344;BME280;59146;43.850;25.948;2024-01-11T12:29:30;101733.91;;;0.27;67.97
71344;BME280;59146;43.850;25.948;2024-01-11T12:31:57;101724.50;;;0.39;68.89
71344;BME280;59146;43.850;25.948;2024-01-11T12:34:24;101661.09;;;0.02;68.94
71344;BME280;59146;43.850;25.948;2024-01-11T12:36:50;101692.78;;;0.06;69.49